Terminal Aerodrome Forecast
Issued by NWS

Home | Current Version | Previous Version | Text Only | Print | Product List | Glossary On
Versions: 1 2 3 4 5 6 7 8 9 10 11 12 13 14 15 16
000
FTUS42 KFFC 011733
TAFPDK
TAF
KPDK 011733Z 0118/0218 08006KT 5SM BR OVC007
     FM012200 08005KT P6SM BKN012
     FM020200 14005KT 3SM -DZ OVC008
     FM020600 VRB03KT 1SM -DZ OVC004
     FM021500 30005KT 4SM -DZ OVC008=

USA.gov is the U.S. government's official web portal to all federal, state and local government web resources and services.